createdAt,value
2022-09-06T00:00:15.853Z,1.40
2022-09-06T00:02:44.219Z,1.88
2022-09-06T00:05:13.447Z,3.28
2022-09-06T00:07:41.404Z,1.55
2022-09-06T00:10:09.593Z,1.63
2022-09-06T00:12:38.072Z,1.58
2022-09-06T00:15:06.561Z,1.65
2022-09-06T00:17:35.592Z,2.22
2022-09-06T00:20:03.808Z,1.50
2022-09-06T00:22:31.832Z,1.48
2022-09-06T00:24:59.429Z,1.83
2022-09-06T00:27:28.368Z,1.92
2022-09-06T00:29:56.024Z,3.35
2022-09-06T00:32:23.927Z,1.60
2022-09-06T00:34:53.248Z,3.67
2022-09-06T00:37:20.931Z,1.83
2022-09-06T00:39:48.650Z,2.15
2022-09-06T00:42:16.400Z,1.50
2022-09-06T00:44:44.364Z,2.95
2022-09-06T00:47:12.693Z,1.65
2022-09-06T00:49:42.200Z,3.97
2022-09-06T00:52:12.577Z,1.80
2022-09-06T00:54:40.741Z,1.75
2022-09-06T00:57:08.912Z,2.05
2022-09-06T00:59:38.385Z,3.28
2022-09-06T01:02:07.201Z,1.77
2022-09-06T01:04:35.087Z,1.52
2022-09-06T01:07:06.457Z,1.60
2022-09-06T01:09:45.302Z,1.60
2022-09-06T01:12:23.227Z,1.30
2022-09-06T01:14:58.097Z,1.63
2022-09-06T01:17:30.979Z,1.50
2022-09-06T01:20:11.423Z,1.70
2022-09-06T01:22:53.235Z,1.70
2022-09-06T01:25:34.137Z,1.70
2022-09-06T01:28:16.656Z,2.40
2022-09-06T01:30:47.587Z,2.28
2022-09-06T01:33:17.345Z,1.77
2022-09-06T01:35:49.060Z,1.60
2022-09-06T01:38:16.943Z,1.67
2022-09-06T01:40:44.565Z,1.80
2022-09-06T01:43:14.650Z,1.70
2022-09-06T01:45:46.914Z,1.60
2022-09-06T01:48:18.094Z,1.80
2022-09-06T01:50:54.488Z,1.90
2022-09-06T01:53:34.444Z,2.55
2022-09-06T01:56:08.547Z,1.63
2022-09-06T01:58:48.018Z,1.98
2022-09-06T02:01:21.309Z,1.63
2022-09-06T02:03:53.860Z,1.83
2022-09-06T02:06:23.224Z,2.53
2022-09-06T02:08:53.375Z,2.00
2022-09-06T02:11:21.131Z,1.80
2022-09-06T02:13:51.260Z,1.70
2022-09-06T02:16:21.576Z,2.35
2022-09-06T02:18:52.319Z,1.65
2022-09-06T02:21:23.389Z,2.70
2022-09-06T02:23:51.793Z,1.92
2022-09-06T02:26:20.619Z,2.38
2022-09-06T02:28:48.352Z,1.67
2022-09-06T02:31:19.263Z,1.80
2022-09-06T02:33:47.349Z,1.83
2022-09-06T02:36:15.755Z,1.75
2022-09-06T02:38:45.043Z,1.70
2022-09-06T02:41:13.564Z,1.80
2022-09-06T02:43:42.156Z,1.83
2022-09-06T02:46:09.919Z,1.60
2022-09-06T02:48:38.962Z,1.75
2022-09-06T02:51:06.980Z,1.77
2022-09-06T02:53:35.036Z,2.00
2022-09-06T02:56:02.802Z,1.90
2022-09-06T02:58:30.512Z,1.88
2022-09-06T03:00:58.545Z,1.80
2022-09-06T03:03:27.328Z,1.90
2022-09-06T03:05:56.719Z,1.73
2022-09-06T03:08:26.170Z,2.22
2022-09-06T03:10:54.844Z,2.00
2022-09-06T03:13:22.629Z,1.83
2022-09-06T03:15:51.507Z,1.80
2022-09-06T03:18:19.445Z,1.90
2022-09-06T03:20:47.224Z,1.92
2022-09-06T03:23:16.252Z,2.15
2022-09-06T03:25:44.543Z,3.33
2022-09-06T03:28:12.791Z,1.75
2022-09-06T03:30:40.541Z,1.90
2022-09-06T03:33:08.256Z,1.92
2022-09-06T03:35:36.176Z,2.00
2022-09-06T03:38:03.806Z,1.77
2022-09-06T03:40:32.728Z,2.05
2022-09-06T03:43:00.419Z,1.85
2022-09-06T03:45:28.057Z,1.90
2022-09-06T03:47:55.933Z,1.88
2022-09-06T03:50:23.611Z,1.90
2022-09-06T03:52:51.259Z,1.80
2022-09-06T03:55:19.079Z,1.92
2022-09-06T03:57:48.137Z,2.13
2022-09-06T04:00:16.575Z,1.85
2022-09-06T04:02:44.326Z,2.05
2022-09-06T04:05:13.336Z,2.08
2022-09-06T04:07:41.098Z,2.10
2022-09-06T04:10:09.103Z,1.90
2022-09-06T04:12:36.695Z,2.15
2022-09-06T04:15:06.433Z,2.03
2022-09-06T04:17:34.042Z,1.98
2022-09-06T04:20:01.711Z,2.20
2022-09-06T04:22:29.352Z,1.98
2022-09-06T04:24:58.215Z,1.67
2022-09-06T04:27:25.906Z,2.13
2022-09-06T04:29:53.550Z,2.10
2022-09-06T04:32:22.516Z,1.70
2022-09-06T04:34:50.100Z,1.98
2022-09-06T04:37:19.958Z,2.15
2022-09-06T04:39:47.883Z,1.85
2022-09-06T04:42:15.843Z,1.92
2022-09-06T04:44:43.592Z,2.00
2022-09-06T04:47:14.695Z,1.80
2022-09-06T04:49:43.936Z,1.90
2022-09-06T04:52:12.134Z,1.92
2022-09-06T04:54:39.761Z,1.65
2022-09-06T04:57:07.650Z,2.00
2022-09-06T04:59:35.308Z,1.98
2022-09-06T05:02:03.159Z,1.95
2022-09-06T05:04:30.917Z,1.83
2022-09-06T05:07:04.978Z,2.10
2022-09-06T05:09:32.781Z,1.80
2022-09-06T05:12:00.691Z,1.80
2022-09-06T05:14:28.585Z,1.88
2022-09-06T05:16:56.526Z,1.70
2022-09-06T05:19:24.217Z,1.80
2022-09-06T05:21:52.023Z,2.33
2022-09-06T05:24:21.032Z,2.10
2022-09-06T05:26:48.640Z,1.85
2022-09-06T05:29:16.513Z,2.05
2022-09-06T05:31:44.151Z,2.13
2022-09-06T05:34:13.350Z,2.17
2022-09-06T05:36:41.951Z,2.35
2022-09-06T05:39:09.592Z,1.90
2022-09-06T05:41:38.560Z,1.80
2022-09-06T05:44:06.227Z,2.55
2022-09-06T05:46:34.266Z,1.88
2022-09-06T05:49:04.760Z,1.48
2022-09-06T05:51:32.746Z,1.90
2022-09-06T05:54:00.570Z,2.00
2022-09-06T05:56:28.230Z,1.73
2022-09-06T05:58:57.300Z,3.17
2022-09-06T06:01:26.584Z,2.88
2022-09-06T06:03:55.436Z,2.05
2022-09-06T06:06:23.609Z,1.58
2022-09-06T06:08:51.523Z,1.95
2022-09-06T06:11:19.373Z,1.83
2022-09-06T06:13:47.243Z,1.70
2022-09-06T06:16:17.475Z,4.35
2022-09-06T06:18:49.996Z,1.50
2022-09-06T06:21:20.774Z,1.48
2022-09-06T06:23:50.987Z,1.60
2022-09-06T06:26:18.773Z,1.90
2022-09-06T06:28:46.532Z,1.38
2022-09-06T06:31:14.737Z,1.60
2022-09-06T06:33:44.255Z,1.70
2022-09-06T06:36:20.639Z,2.00
2022-09-06T06:38:49.098Z,1.73
2022-09-06T06:41:18.340Z,1.77
2022-09-06T06:43:46.031Z,2.25
2022-09-06T06:46:14.824Z,1.75
2022-09-06T06:48:44.598Z,1.52
2022-09-06T06:51:13.024Z,1.80
2022-09-06T06:53:40.880Z,2.78
2022-09-06T06:56:16.225Z,1.85
2022-09-06T06:58:44.480Z,2.65
2022-09-06T07:01:13.753Z,1.67
2022-09-06T07:03:41.581Z,1.73
2022-09-06T07:06:10.975Z,1.70
2022-09-06T07:08:39.373Z,1.52
2022-09-06T07:11:07.375Z,1.88
2022-09-06T07:13:35.033Z,1.77
2022-09-06T07:16:09.514Z,1.65
2022-09-06T07:18:37.674Z,1.70
2022-09-06T07:24:10.546Z,2.15
2022-09-06T07:26:40.187Z,1.95
2022-09-06T07:29:08.474Z,1.83
2022-09-06T07:34:25.699Z,2.00
2022-09-06T07:36:53.970Z,1.90
2022-09-06T07:39:23.374Z,1.73
2022-09-06T07:41:51.094Z,2.00
2022-09-06T07:44:18.725Z,1.90
2022-09-06T07:46:46.548Z,1.70
2022-09-06T07:49:14.218Z,2.10
2022-09-06T07:51:41.819Z,2.13
2022-09-06T07:56:58.368Z,3.00
2022-09-06T07:59:26.164Z,2.15
2022-09-06T08:01:54.002Z,5.38
2022-09-06T08:04:21.711Z,2.28
2022-09-06T08:09:40.052Z,2.55
2022-09-06T08:12:09.538Z,1.90
2022-09-06T08:14:37.172Z,2.33
2022-09-06T08:17:04.988Z,2.10
2022-09-06T08:19:32.638Z,2.08
2022-09-06T08:22:00.283Z,2.30
2022-09-06T08:24:27.931Z,2.00
2022-09-06T08:26:55.684Z,2.25
2022-09-06T08:29:25.918Z,2.13
2022-09-06T08:31:53.818Z,2.25
2022-09-06T08:34:21.543Z,2.15
2022-09-06T08:36:49.140Z,2.30
2022-09-06T08:39:16.748Z,2.25
2022-09-06T08:41:48.273Z,2.38
2022-09-06T08:47:09.635Z,2.55
2022-09-06T08:49:38.936Z,2.30
2022-09-06T08:52:21.496Z,3.08
2022-09-06T08:54:54.218Z,2.30
2022-09-06T08:57:30.824Z,2.35
2022-09-06T09:00:06.980Z,3.42
2022-09-06T09:02:42.237Z,2.22
2022-09-06T09:05:13.489Z,2.20
2022-09-06T09:07:44.551Z,2.55
2022-09-06T09:10:15.374Z,2.45
2022-09-06T09:12:45.691Z,2.47
2022-09-06T09:15:14.260Z,3.20
2022-09-06T09:17:43.587Z,2.58
2022-09-06T09:20:11.368Z,2.40
2022-09-06T09:22:39.079Z,3.00
2022-09-06T09:25:08.198Z,2.28
2022-09-06T09:27:37.135Z,3.28
2022-09-06T09:32:55.160Z,2.80
2022-09-06T09:35:25.177Z,3.78
2022-09-06T09:38:07.965Z,2.20
2022-09-06T09:40:41.502Z,2.30
2022-09-06T09:43:16.739Z,2.50
2022-09-06T09:45:45.259Z,2.42
2022-09-06T09:48:22.355Z,2.40
2022-09-06T09:50:50.476Z,2.47
2022-09-06T09:53:19.750Z,2.75
2022-09-06T09:55:47.538Z,2.67
2022-09-06T09:58:23.849Z,2.50
2022-09-06T10:01:09.455Z,2.55
2022-09-06T10:09:19.166Z,2.50
2022-09-06T10:11:55.354Z,2.30
2022-09-06T10:14:26.655Z,4.68
2022-09-06T10:16:54.642Z,2.40
2022-09-06T10:19:24.715Z,2.47
2022-09-06T10:21:54.960Z,2.75
2022-09-06T10:24:28.163Z,3.22
2022-09-06T10:26:56.799Z,2.30
2022-09-06T10:29:27.924Z,2.47
2022-09-06T10:32:03.683Z,2.10
2022-09-06T10:34:49.184Z,3.00
2022-09-06T10:37:21.971Z,2.08
2022-09-06T10:39:51.161Z,3.28
2022-09-06T10:42:25.509Z,2.67
2022-09-06T10:44:58.679Z,2.20
2022-09-06T10:47:32.879Z,2.50
2022-09-06T10:50:01.320Z,2.28
2022-09-06T10:52:33.828Z,2.40
2022-09-06T10:55:04.555Z,2.20
2022-09-06T11:00:23.629Z,2.80
2022-09-06T11:05:45.461Z,1.98
2022-09-06T11:11:07.267Z,3.05
2022-09-06T11:13:34.968Z,1.92
2022-09-06T11:16:05.035Z,2.20
2022-09-06T11:18:36.581Z,2.50
2022-09-06T11:21:22.369Z,6.35
2022-09-06T11:23:52.183Z,2.20
2022-09-06T11:26:31.499Z,2.85
2022-09-06T11:29:00.232Z,2.50
2022-09-06T11:34:20.980Z,2.45
2022-09-06T11:36:49.422Z,2.00
2022-09-06T11:42:29.456Z,2.10
2022-09-06T11:45:11.947Z,2.05
2022-09-06T11:47:40.692Z,2.25
2022-09-06T11:50:25.896Z,2.60
2022-09-06T11:53:00.471Z,2.33
2022-09-06T11:55:35.840Z,2.30
2022-09-06T11:58:04.639Z,2.70
2022-09-06T12:00:33.859Z,2.50
2022-09-06T12:06:08.052Z,5.03
2022-09-06T12:08:36.065Z,2.47
2022-09-06T12:11:06.876Z,3.42
2022-09-06T12:13:36.032Z,2.20
2022-09-06T12:16:03.776Z,2.40
2022-09-06T12:18:50.326Z,2.20
2022-09-06T12:21:32.794Z,2.45
2022-09-06T12:24:00.834Z,2.10
2022-09-06T12:26:55.275Z,2.30
2022-09-06T12:29:26.779Z,2.55
2022-09-06T12:31:55.365Z,2.30
2022-09-06T12:34:24.981Z,2.60
2022-09-06T12:36:57.415Z,3.00
2022-09-06T12:39:25.527Z,2.90
2022-09-06T12:41:55.820Z,3.15
2022-09-06T12:44:28.697Z,2.72
2022-09-06T12:47:00.461Z,3.13
2022-09-06T12:49:28.041Z,2.83
2022-09-06T12:52:06.410Z,3.40
2022-09-06T12:54:33.975Z,4.03
2022-09-06T12:57:13.172Z,4.00
2022-09-06T12:59:49.530Z,3.75
2022-09-06T13:02:18.549Z,3.60
2022-09-06T13:04:48.479Z,3.78
2022-09-06T13:07:18.076Z,7.43
2022-09-06T13:09:47.477Z,7.72
2022-09-06T13:12:19.315Z,4.05
2022-09-06T13:14:47.073Z,3.15
2022-09-06T13:17:25.081Z,3.00
2022-09-06T13:19:52.655Z,3.17
2022-09-06T13:22:40.072Z,2.85
2022-09-06T13:25:15.264Z,2.80
2022-09-06T13:27:46.819Z,3.97
2022-09-06T13:30:33.235Z,2.67
2022-09-06T13:33:02.574Z,2.58
2022-09-06T13:35:31.109Z,3.25
2022-09-06T13:38:17.407Z,2.92
2022-09-06T13:41:09.328Z,3.20
2022-09-06T13:43:41.525Z,2.60
2022-09-06T13:46:10.021Z,6.18
2022-09-06T13:48:39.744Z,24.67
2022-09-06T13:51:10.949Z,64.47
2022-09-06T13:53:38.636Z,60.60
2022-09-06T13:56:08.874Z,12.50
2022-09-06T13:58:37.174Z,9.57
2022-09-06T14:01:04.909Z,5.88
2022-09-06T14:03:33.347Z,4.32
2022-09-06T14:06:02.364Z,4.80
2022-09-06T14:08:43.885Z,6.35
2022-09-06T14:11:18.194Z,3.40
2022-09-06T14:13:46.013Z,4.60
2022-09-06T14:16:13.763Z,3.70
2022-09-06T14:18:41.478Z,3.13
2022-09-06T14:21:10.594Z,3.33
2022-09-06T14:23:38.316Z,2.92
2022-09-06T14:26:06.357Z,3.85
2022-09-06T14:28:36.406Z,6.10
2022-09-06T14:31:10.965Z,3.80
2022-09-06T14:33:38.609Z,4.40
2022-09-06T14:36:07.599Z,3.30
2022-09-06T14:38:38.563Z,5.25
2022-09-06T14:41:07.547Z,3.33
2022-09-06T14:43:35.993Z,2.97
2022-09-06T14:46:05.237Z,3.28
2022-09-06T14:48:33.107Z,3.58
2022-09-06T14:51:07.860Z,3.30
2022-09-06T14:53:40.610Z,3.42
2022-09-06T14:56:09.022Z,3.65
2022-09-06T14:58:37.919Z,3.30
2022-09-06T15:01:10.004Z,3.13
2022-09-06T15:03:37.727Z,3.75
2022-09-06T15:06:05.749Z,3.47
2022-09-06T15:08:33.601Z,2.92
2022-09-06T15:11:02.791Z,2.83
2022-09-06T15:13:30.643Z,2.90
2022-09-06T15:15:58.437Z,3.28
2022-09-06T15:18:26.436Z,3.30
2022-09-06T15:20:54.101Z,2.42
2022-09-06T15:23:25.321Z,2.53
2022-09-06T15:25:54.081Z,2.95
2022-09-06T15:28:23.103Z,2.70
2022-09-06T15:30:51.301Z,2.42
2022-09-06T15:33:19.203Z,3.00
2022-09-06T15:35:54.580Z,2.13
2022-09-06T15:38:22.233Z,2.90
2022-09-06T15:40:50.122Z,3.58
2022-09-06T15:43:18.032Z,2.60
2022-09-06T15:45:49.033Z,2.10
2022-09-06T15:48:17.313Z,2.50
2022-09-06T15:50:51.701Z,3.00
2022-09-06T15:53:19.632Z,2.22
2022-09-06T15:56:00.519Z,3.05
2022-09-06T15:58:28.936Z,2.38
2022-09-06T16:01:08.572Z,3.35
2022-09-06T16:03:37.453Z,2.17
2022-09-06T16:08:58.381Z,5.30
2022-09-06T16:11:26.384Z,2.50
2022-09-06T16:13:54.241Z,4.53
2022-09-06T16:16:23.508Z,2.08
2022-09-06T16:18:52.142Z,3.50
2022-09-06T16:21:21.532Z,4.82
2022-09-06T16:23:49.596Z,2.28
2022-09-06T16:26:21.307Z,2.88
2022-09-06T16:28:50.083Z,3.63
2022-09-06T16:31:18.177Z,2.20
2022-09-06T16:33:48.780Z,2.13
2022-09-06T16:36:16.927Z,2.40
2022-09-06T16:38:44.633Z,3.03
2022-09-06T16:41:14.315Z,2.25
2022-09-06T16:43:42.538Z,2.00
2022-09-06T16:46:10.340Z,3.80
2022-09-06T16:48:40.385Z,2.50
2022-09-06T16:51:17.959Z,2.75
2022-09-06T16:53:47.687Z,2.13
2022-09-06T16:56:16.549Z,2.78
2022-09-06T16:58:44.638Z,2.05
2022-09-06T17:01:12.420Z,1.73
2022-09-06T17:03:40.435Z,2.38
2022-09-06T17:06:08.699Z,1.98
2022-09-06T17:08:38.432Z,2.35
2022-09-06T17:11:07.118Z,4.25
2022-09-06T17:13:34.924Z,2.35
2022-09-06T17:16:22.401Z,2.05
2022-09-06T17:18:50.272Z,2.78
2022-09-06T17:21:17.948Z,2.13
2022-09-06T17:23:46.948Z,2.42
2022-09-06T17:26:15.175Z,2.95
2022-09-06T17:28:42.840Z,2.10
2022-09-06T17:31:10.512Z,2.30
2022-09-06T17:33:38.398Z,2.60
2022-09-06T17:36:07.003Z,2.28
2022-09-06T17:38:34.750Z,1.90
2022-09-06T17:41:03.842Z,2.17
2022-09-06T17:43:32.387Z,2.20
2022-09-06T17:46:00.190Z,2.10
2022-09-06T17:48:28.621Z,1.70
2022-09-06T17:50:56.820Z,2.22
2022-09-06T17:53:24.735Z,2.65
2022-09-06T17:55:52.616Z,2.60
2022-09-06T17:58:21.910Z,2.17
2022-09-06T18:00:50.668Z,2.08
2022-09-06T18:03:18.378Z,3.42
2022-09-06T18:05:46.013Z,2.60
2022-09-06T18:08:13.669Z,2.63
2022-09-06T18:10:41.387Z,3.28
2022-09-06T18:13:09.219Z,2.85
2022-09-06T18:15:41.460Z,2.72
2022-09-06T18:18:09.264Z,3.45
2022-09-06T18:20:37.877Z,3.10
2022-09-06T18:23:05.730Z,2.80
2022-09-06T18:25:33.367Z,3.28
2022-09-06T18:28:00.996Z,4.63
2022-09-06T18:30:28.656Z,2.80
2022-09-06T18:32:57.783Z,2.50
2022-09-06T18:35:25.486Z,7.22
2022-09-06T18:37:53.117Z,1.90
2022-09-06T18:40:20.950Z,3.70
2022-09-06T18:42:48.726Z,3.78
2022-09-06T18:45:16.999Z,2.60
2022-09-06T18:47:45.048Z,3.70
2022-09-06T18:50:14.094Z,2.35
2022-09-06T18:52:41.771Z,2.47
2022-09-06T18:55:09.534Z,4.95
2022-09-06T18:57:37.715Z,5.20
2022-09-06T19:00:07.091Z,2.22
2022-09-06T19:02:34.858Z,2.17
2022-09-06T19:05:02.943Z,2.00
2022-09-06T19:07:32.543Z,2.78
2022-09-06T19:10:00.343Z,2.42
2022-09-06T19:12:28.033Z,5.20
2022-09-06T19:14:55.770Z,2.30
2022-09-06T19:17:23.504Z,2.35
2022-09-06T19:19:51.190Z,4.25
2022-09-06T19:22:18.933Z,3.25
2022-09-06T19:24:48.217Z,2.95
2022-09-06T19:27:16.763Z,2.17
2022-09-06T19:29:44.923Z,2.20
2022-09-06T19:32:12.656Z,3.50
2022-09-06T19:34:40.888Z,1.98
2022-09-06T19:37:08.504Z,3.50
2022-09-06T19:39:37.396Z,2.63
2022-09-06T19:42:07.076Z,2.40
2022-09-06T19:44:34.956Z,3.80
2022-09-06T19:47:02.720Z,2.28
2022-09-06T19:49:30.821Z,2.40
2022-09-06T19:51:58.757Z,2.05
2022-09-06T19:54:26.660Z,2.80
2022-09-06T19:56:54.399Z,2.10
2022-09-06T19:59:23.508Z,2.50
2022-09-06T20:01:51.348Z,2.03
2022-09-06T20:04:19.896Z,2.85
2022-09-06T20:06:47.921Z,2.58
2022-09-06T20:09:16.463Z,2.97
2022-09-06T20:11:44.520Z,4.40
2022-09-06T20:14:13.010Z,3.05
2022-09-06T20:16:42.941Z,2.20
2022-09-06T20:19:11.846Z,2.90
2022-09-06T20:21:39.630Z,2.80
2022-09-06T20:24:07.427Z,2.58
2022-09-06T20:26:35.243Z,2.35
2022-09-06T20:29:03.578Z,2.35
2022-09-06T20:31:32.093Z,2.33
2022-09-06T20:34:02.156Z,2.10
2022-09-06T20:36:30.063Z,2.20
2022-09-06T20:38:58.032Z,3.08
2022-09-06T20:41:26.445Z,2.17
2022-09-06T20:43:55.023Z,2.10
2022-09-06T20:46:23.631Z,5.63
2022-09-06T20:48:51.835Z,5.25
2022-09-06T20:51:22.027Z,1.80
2022-09-06T20:53:51.726Z,2.13
2022-09-06T20:56:20.419Z,2.00
2022-09-06T20:58:49.514Z,3.33
2022-09-06T21:01:19.441Z,2.10
2022-09-06T21:03:47.207Z,2.08
2022-09-06T21:06:15.213Z,2.20
2022-09-06T21:08:44.547Z,2.13
2022-09-06T21:11:12.296Z,1.67
2022-09-06T21:13:40.396Z,2.10
2022-09-06T21:16:08.556Z,2.38
2022-09-06T21:18:36.948Z,2.03
2022-09-06T21:21:05.319Z,2.38
2022-09-06T21:23:33.811Z,2.03
2022-09-06T21:26:06.776Z,2.60
2022-09-06T21:28:36.479Z,2.00
2022-09-06T21:31:04.919Z,2.20
2022-09-06T21:33:33.159Z,2.00
2022-09-06T21:36:03.238Z,3.63
2022-09-06T21:38:31.646Z,2.05
2022-09-06T21:40:59.510Z,2.50
2022-09-06T21:43:28.668Z,1.95
2022-09-06T21:45:57.962Z,2.60
2022-09-06T21:48:25.875Z,1.85
2022-09-06T21:50:53.708Z,2.38
2022-09-06T21:53:22.891Z,2.33
2022-09-06T21:55:50.966Z,2.65
2022-09-06T21:58:18.629Z,2.10
2022-09-06T22:00:52.035Z,3.95
2022-09-06T22:03:20.061Z,2.67
2022-09-06T22:05:47.846Z,2.10
2022-09-06T22:08:15.567Z,2.63
2022-09-06T22:10:43.295Z,2.30
2022-09-06T22:13:10.936Z,2.00
2022-09-06T22:15:38.947Z,1.83
2022-09-06T22:18:08.233Z,1.98
2022-09-06T22:20:36.280Z,1.83
2022-09-06T22:23:04.690Z,2.10
2022-09-06T22:25:32.543Z,3.45
2022-09-06T22:28:00.477Z,2.08
2022-09-06T22:30:28.219Z,2.00
2022-09-06T22:32:56.034Z,2.72
2022-09-06T22:35:25.102Z,1.80
2022-09-06T22:37:52.751Z,1.85
2022-09-06T22:40:20.497Z,2.45
2022-09-06T22:42:49.224Z,1.80
2022-09-06T22:45:16.940Z,2.50
2022-09-06T22:47:44.610Z,1.80
2022-09-06T22:50:12.286Z,1.80
2022-09-06T22:52:41.304Z,2.03
2022-09-06T22:55:09.589Z,2.15
2022-09-06T22:57:37.517Z,1.80
2022-09-06T23:00:06.225Z,3.97
2022-09-06T23:02:33.899Z,1.90
2022-09-06T23:05:01.639Z,1.88
2022-09-06T23:07:29.403Z,1.90
2022-09-06T23:09:58.466Z,1.60
2022-09-06T23:12:26.248Z,1.83
2022-09-06T23:14:54.165Z,1.90
2022-09-06T23:17:22.104Z,1.77
2022-09-06T23:19:49.920Z,2.17
2022-09-06T23:22:17.706Z,1.75
2022-09-06T23:24:45.528Z,2.28
2022-09-06T23:27:14.568Z,2.30
2022-09-06T23:29:43.777Z,1.70
2022-09-06T23:32:11.443Z,1.75
2022-09-06T23:34:39.303Z,5.32
2022-09-06T23:37:07.235Z,1.60
2022-09-06T23:39:35.031Z,7.38
2022-09-06T23:42:02.752Z,1.88
2022-09-06T23:44:31.732Z,1.63
2022-09-06T23:46:59.521Z,2.10
2022-09-06T23:49:27.186Z,1.67
2022-09-06T23:51:54.864Z,1.80
2022-09-06T23:54:22.622Z,1.70
2022-09-06T23:56:50.294Z,1.70
2022-09-06T23:59:17.956Z,1.60
